createdAt,value
2023-02-25T00:01:54.613Z,97563.94
2023-02-25T00:04:31.525Z,97561.88
2023-02-25T00:06:59.293Z,97572.78
2023-02-25T00:09:28.649Z,97560.09
2023-02-25T00:11:56.627Z,97564.41
2023-02-25T00:14:24.443Z,97568.25
2023-02-25T00:16:55.864Z,97559.88
2023-02-25T00:19:24.052Z,97561.31
2023-02-25T00:21:51.957Z,97558.69
2023-02-25T00:24:19.815Z,97566.22
2023-02-25T00:26:49.080Z,97556.53
2023-02-25T00:29:16.854Z,97556.53
2023-02-25T00:31:46.640Z,97573.59
2023-02-25T00:34:15.494Z,97564.88
2023-02-25T00:36:43.473Z,97568.97
2023-02-25T00:39:11.559Z,97555.59
2023-02-25T00:41:39.408Z,97566.19
2023-02-25T00:44:09.017Z,97580.16
2023-02-25T00:46:37.018Z,97568.47
2023-02-25T00:49:07.105Z,97571.63
2023-02-25T00:51:35.227Z,97573.09
2023-02-25T00:54:03.055Z,97575.31
2023-02-25T00:56:30.884Z,97576.72
2023-02-25T00:59:00.388Z,97566.50
2023-02-25T01:01:31.732Z,97565.88
2023-02-25T01:04:00.610Z,97566.44
2023-02-25T01:06:30.183Z,97579.84
2023-02-25T01:08:59.029Z,97577.06
2023-02-25T01:11:29.483Z,97594.41
2023-02-25T01:13:58.453Z,97590.53
2023-02-25T01:16:30.372Z,97590.59
2023-02-25T01:19:00.753Z,97605.59
2023-02-25T01:21:30.460Z,97593.00
2023-02-25T01:24:01.114Z,97586.72
2023-02-25T01:26:30.665Z,97602.00
2023-02-25T01:28:58.759Z,97598.13
2023-02-25T01:31:30.182Z,97586.84
2023-02-25T01:33:59.257Z,97597.13
2023-02-25T01:36:27.743Z,97612.88
2023-02-25T01:38:56.384Z,97606.72
2023-02-25T01:41:25.876Z,97625.19
2023-02-25T01:44:09.302Z,97618.00
2023-02-25T01:46:39.217Z,97620.38
2023-02-25T01:49:12.196Z,97615.41
2023-02-25T01:51:39.980Z,97618.22
2023-02-25T01:54:11.823Z,97610.72
2023-02-25T01:56:42.396Z,97609.44
2023-02-25T01:59:11.090Z,97613.94
2023-02-25T02:01:43.190Z,97609.69
2023-02-25T02:04:14.694Z,97604.16
2023-02-25T02:06:44.567Z,97600.34
2023-02-25T02:09:16.438Z,97592.84
2023-02-25T02:11:44.248Z,97590.94
2023-02-25T02:14:15.559Z,97592.75
2023-02-25T02:17:19.298Z,97603.97
2023-02-25T02:20:14.026Z,97615.63
2023-02-25T02:22:55.670Z,97607.94
2023-02-25T02:25:57.361Z,97606.81
2023-02-25T02:28:53.833Z,97608.75
2023-02-25T02:31:49.132Z,97613.75
2023-02-25T02:34:33.731Z,97610.25
2023-02-25T02:37:13.810Z,97614.97
2023-02-25T02:39:52.494Z,97614.72
2023-02-25T02:42:29.978Z,97624.03
2023-02-25T02:45:03.614Z,97632.63
2023-02-25T02:47:35.669Z,97632.66
2023-02-25T02:50:07.177Z,97637.69
2023-02-25T02:52:41.544Z,97636.41
2023-02-25T02:55:22.536Z,97632.53
2023-02-25T02:57:56.811Z,97632.31
2023-02-25T03:00:31.158Z,97634.34
2023-02-25T03:03:08.202Z,97628.50
2023-02-25T03:05:38.331Z,97626.25
2023-02-25T03:08:11.324Z,97637.28
2023-02-25T03:10:39.274Z,97629.28
2023-02-25T03:13:07.626Z,97634.31
2023-02-25T03:15:40.335Z,97639.78
2023-02-25T03:18:17.327Z,97638.41
2023-02-25T03:20:49.437Z,97646.19
2023-02-25T03:23:23.490Z,97646.28
2023-02-25T03:25:54.683Z,97649.59
2023-02-25T03:28:27.251Z,97652.72
2023-02-25T03:31:06.286Z,97648.06
2023-02-25T03:33:40.964Z,97653.41
2023-02-25T03:36:13.311Z,97655.13
2023-02-25T03:38:45.988Z,97659.69
2023-02-25T03:41:16.065Z,97660.44
2023-02-25T03:43:47.521Z,97659.06
2023-02-25T03:46:16.365Z,97671.47
2023-02-25T03:48:46.326Z,97666.19
2023-02-25T03:51:18.380Z,97660.69
2023-02-25T03:53:50.167Z,97665.34
2023-02-25T03:56:25.101Z,97673.16
2023-02-25T03:58:53.101Z,97670.50
2023-02-25T04:01:27.234Z,97672.78
2023-02-25T04:03:56.309Z,97686.84
2023-02-25T04:06:25.746Z,97686.03
2023-02-25T04:08:53.974Z,97688.38
2023-02-25T04:11:21.787Z,97680.94
2023-02-25T04:13:50.167Z,97686.34
2023-02-25T04:16:18.717Z,97690.66
2023-02-25T04:18:47.635Z,97696.53
2023-02-25T04:21:27.777Z,97690.13
2023-02-25T04:23:55.532Z,97689.25
2023-02-25T04:26:23.743Z,97685.75
2023-02-25T04:28:51.803Z,97694.16
2023-02-25T04:31:19.828Z,97693.41
2023-02-25T04:33:49.868Z,97697.59
2023-02-25T04:36:31.009Z,97693.19
2023-02-25T04:39:00.521Z,97701.31
2023-02-25T04:41:31.375Z,97705.28
2023-02-25T04:43:59.306Z,97709.13
2023-02-25T04:46:27.593Z,97703.03
2023-02-25T04:48:55.457Z,97700.53
2023-02-25T04:51:25.349Z,97706.19
2023-02-25T04:53:54.939Z,97724.03
2023-02-25T04:56:22.987Z,97709.75
2023-02-25T04:58:51.488Z,97708.06
2023-02-25T05:01:19.262Z,97712.25
2023-02-25T05:03:47.146Z,97718.81
2023-02-25T05:06:14.936Z,97722.53
2023-02-25T05:08:42.803Z,97710.25
2023-02-25T05:11:11.890Z,97712.91
2023-02-25T05:13:39.648Z,97708.63
2023-02-25T05:16:09.453Z,97709.31
2023-02-25T05:18:38.155Z,97707.44
2023-02-25T05:21:09.524Z,97700.94
2023-02-25T05:23:37.264Z,97706.16
2023-02-25T05:26:05.349Z,97710.78
2023-02-25T05:28:34.634Z,97714.81
2023-02-25T05:31:05.637Z,97718.03
2023-02-25T05:33:33.513Z,97714.34
2023-02-25T05:36:01.366Z,97706.22
2023-02-25T05:38:29.144Z,97709.34
2023-02-25T05:41:00.409Z,97712.88
2023-02-25T05:43:28.166Z,97707.88
2023-02-25T05:45:58.876Z,97706.00
2023-02-25T05:48:28.907Z,97710.50
2023-02-25T05:51:02.475Z,97712.69
2023-02-25T05:53:33.523Z,97715.41
2023-02-25T05:56:06.184Z,97716.88
2023-02-25T05:58:34.341Z,97720.81
2023-02-25T06:01:10.472Z,97723.13
2023-02-25T06:03:38.338Z,97732.56
2023-02-25T06:06:07.391Z,97721.84
2023-02-25T06:08:35.583Z,97724.47
2023-02-25T06:11:06.547Z,97724.13
2023-02-25T06:13:36.741Z,97731.84
2023-02-25T06:16:06.830Z,97734.25
2023-02-25T06:18:37.065Z,97738.09
2023-02-25T06:21:06.853Z,97728.59
2023-02-25T06:23:35.266Z,97724.47
2023-02-25T06:26:07.775Z,97732.72
2023-02-25T06:28:36.072Z,97741.53
2023-02-25T06:31:08.873Z,97746.25
2023-02-25T06:33:39.437Z,97735.44
2023-02-25T06:36:10.634Z,97741.59
2023-02-25T06:38:38.515Z,97744.50
2023-02-25T06:41:07.800Z,97744.81
2023-02-25T06:43:38.122Z,97747.25
2023-02-25T06:46:09.205Z,97746.63
2023-02-25T06:48:37.053Z,97745.22
2023-02-25T06:51:09.104Z,97742.03
2023-02-25T06:53:36.959Z,97742.81
2023-02-25T06:56:05.537Z,97741.31
2023-02-25T06:58:33.379Z,97753.13
2023-02-25T07:01:01.211Z,97756.19
2023-02-25T07:03:30.259Z,97753.25
2023-02-25T07:05:58.029Z,97761.94
2023-02-25T07:08:25.892Z,97758.13
2023-02-25T07:10:56.650Z,97765.75
2023-02-25T07:13:24.386Z,97766.81
2023-02-25T07:15:52.186Z,97756.81
2023-02-25T07:18:20.340Z,97772.88
2023-02-25T07:20:49.370Z,97771.56
2023-02-25T07:23:17.155Z,97772.16
2023-02-25T07:25:44.895Z,97779.16
2023-02-25T07:28:12.681Z,97779.69
2023-02-25T07:30:40.370Z,97779.16
2023-02-25T07:33:08.297Z,97776.53
2023-02-25T07:35:36.377Z,97783.72
2023-02-25T07:38:05.581Z,97779.63
2023-02-25T07:40:33.481Z,97785.97
2023-02-25T07:43:01.241Z,97778.75
2023-02-25T07:45:28.997Z,97778.25
2023-02-25T07:48:00.926Z,97775.47
2023-02-25T07:50:28.790Z,97768.59
2023-02-25T07:52:56.698Z,97776.34
2023-02-25T07:55:26.054Z,97776.31
2023-02-25T07:57:53.892Z,97776.09
2023-02-25T08:00:22.080Z,97772.63
2023-02-25T08:02:49.932Z,97767.97
2023-02-25T08:05:22.675Z,97770.88
2023-02-25T08:07:50.996Z,97773.78
2023-02-25T08:10:19.332Z,97772.84
2023-02-25T08:12:48.534Z,97783.94
2023-02-25T08:15:16.682Z,97772.94
2023-02-25T08:17:44.389Z,97774.91
2023-02-25T08:20:14.174Z,97779.13
2023-02-25T08:22:41.994Z,97773.38
2023-02-25T08:25:10.675Z,97773.06
2023-02-25T08:27:38.530Z,97780.63
2023-02-25T08:30:11.985Z,97790.56
2023-02-25T08:32:41.920Z,97778.97
2023-02-25T08:35:10.558Z,97790.47
2023-02-25T08:37:38.391Z,97779.25
2023-02-25T08:40:10.224Z,97777.03
2023-02-25T08:42:38.043Z,97773.16
2023-02-25T08:45:06.859Z,97771.38
2023-02-25T08:47:35.912Z,97765.72
2023-02-25T08:50:05.469Z,97774.34
2023-02-25T08:52:35.853Z,97774.63
2023-02-25T08:55:04.110Z,97772.78
2023-02-25T08:57:32.570Z,97769.19
2023-02-25T09:00:00.340Z,97774.25
2023-02-25T09:02:28.184Z,97773.31
2023-02-25T09:04:57.725Z,97775.50
2023-02-25T09:07:27.879Z,97779.94
2023-02-25T09:09:55.601Z,97774.75
2023-02-25T09:12:24.832Z,97764.28
2023-02-25T09:14:52.785Z,97772.78
2023-02-25T09:17:20.521Z,97767.16
2023-02-25T09:19:48.300Z,97767.94
2023-02-25T09:22:19.626Z,97770.44
2023-02-25T09:24:47.653Z,97759.81
2023-02-25T09:27:15.397Z,97775.38
2023-02-25T09:29:43.128Z,97761.91
2023-02-25T09:32:19.044Z,97763.16
2023-02-25T09:34:49.020Z,97767.63
2023-02-25T09:37:19.644Z,97759.59
2023-02-25T09:39:47.976Z,97754.09
2023-02-25T09:42:20.166Z,97760.47
2023-02-25T09:44:54.028Z,97759.47
2023-02-25T09:47:27.821Z,97765.69
2023-02-25T09:49:59.430Z,97754.25
2023-02-25T09:52:32.162Z,97753.66
2023-02-25T09:55:04.635Z,97765.63
2023-02-25T09:57:41.421Z,97767.53
2023-02-25T10:00:18.466Z,97765.50
2023-02-25T10:02:52.529Z,97776.34
2023-02-25T10:05:27.278Z,97771.75
2023-02-25T10:08:11.023Z,97769.75
2023-02-25T10:10:46.668Z,97763.53
2023-02-25T10:13:25.117Z,97774.75
2023-02-25T10:16:03.378Z,97764.78
2023-02-25T10:18:46.086Z,97774.91
2023-02-25T10:21:28.166Z,97777.56
2023-02-25T10:24:13.549Z,97763.16
2023-02-25T10:26:47.310Z,97765.28
2023-02-25T10:29:22.757Z,97766.16
2023-02-25T10:31:50.754Z,97762.53
2023-02-25T10:34:23.387Z,97761.81
2023-02-25T10:36:56.409Z,97758.03
2023-02-25T10:39:27.927Z,97755.25
2023-02-25T10:41:56.265Z,97746.38
2023-02-25T10:44:24.031Z,97751.56
2023-02-25T10:46:56.560Z,97747.03
2023-02-25T10:49:26.358Z,97743.00
2023-02-25T10:52:03.220Z,97744.06
2023-02-25T10:54:34.849Z,97735.94
2023-02-25T10:57:09.308Z,97725.44
2023-02-25T10:59:40.823Z,97729.50
2023-02-25T11:02:23.342Z,97728.53
2023-02-25T11:04:53.076Z,97731.53
2023-02-25T11:07:29.171Z,97727.59
2023-02-25T11:10:16.718Z,97741.25
2023-02-25T11:12:46.282Z,97729.91
2023-02-25T11:15:43.771Z,97725.53
2023-02-25T11:18:20.704Z,97727.47
2023-02-25T11:20:55.926Z,97732.41
2023-02-25T11:23:28.092Z,97731.91
2023-02-25T11:25:57.755Z,97727.97
2023-02-25T11:28:31.483Z,97717.31
2023-02-25T11:31:17.166Z,97738.59
2023-02-25T11:33:51.139Z,97721.59
2023-02-25T11:36:24.316Z,97733.44
2023-02-25T11:39:08.141Z,97737.69
2023-02-25T11:41:37.270Z,97736.31
2023-02-25T11:44:30.188Z,97736.13
2023-02-25T11:47:02.374Z,97734.03
2023-02-25T11:49:43.653Z,97728.78
2023-02-25T11:52:21.217Z,97733.69
2023-02-25T11:54:59.428Z,97730.94
2023-02-25T11:57:41.506Z,97723.28
2023-02-25T12:00:25.497Z,97718.75
2023-02-25T12:03:11.314Z,97714.59
2023-02-25T12:06:06.736Z,97731.31
2023-02-25T12:08:57.030Z,97729.97
2023-02-25T12:12:08.791Z,97735.69
2023-02-25T12:15:03.850Z,97731.22
2023-02-25T12:18:06.839Z,97727.16
2023-02-25T12:21:21.769Z,97724.28
2023-02-25T12:24:22.854Z,97738.38
2023-02-25T12:27:08.545Z,97730.84
2023-02-25T12:29:57.732Z,97745.84
2023-02-25T12:32:48.334Z,97755.47
2023-02-25T12:35:45.599Z,97761.94
2023-02-25T12:38:45.410Z,97772.72
2023-02-25T12:41:30.741Z,97760.22
2023-02-25T12:44:14.472Z,97759.22
2023-02-25T12:47:01.947Z,97748.56
2023-02-25T12:49:57.889Z,97749.44
2023-02-25T12:52:45.528Z,97745.00
2023-02-25T12:55:46.959Z,97735.13
2023-02-25T12:58:36.924Z,97738.28
2023-02-25T13:01:25.615Z,97734.19
2023-02-25T13:04:22.359Z,97728.84
2023-02-25T13:07:03.074Z,97722.34
2023-02-25T13:09:53.215Z,97708.91
2023-02-25T13:12:43.752Z,97695.81
2023-02-25T13:15:17.727Z,97698.66
2023-02-25T13:18:10.061Z,97704.50
2023-02-25T13:20:52.532Z,97701.53
2023-02-25T13:23:34.649Z,97693.84
2023-02-25T13:26:22.641Z,97693.25
2023-02-25T13:29:04.410Z,97702.44
2023-02-25T13:31:41.306Z,97705.22
2023-02-25T13:34:23.132Z,97707.00
2023-02-25T13:37:05.398Z,97708.78
2023-02-25T13:39:47.868Z,97707.16
2023-02-25T13:42:42.391Z,97712.31
2023-02-25T13:45:36.856Z,97697.19
2023-02-25T13:48:23.453Z,97702.38
2023-02-25T13:51:13.085Z,97695.06
2023-02-25T13:54:00.146Z,97697.78
2023-02-25T13:56:44.836Z,97700.81
2023-02-25T13:59:23.335Z,97704.75
2023-02-25T14:02:05.023Z,97702.22
2023-02-25T14:04:50.240Z,97691.78
2023-02-25T14:07:42.753Z,97694.28
2023-02-25T14:10:54.251Z,97691.16
2023-02-25T14:13:55.865Z,97687.06
2023-02-25T14:16:45.095Z,97688.22
2023-02-25T14:19:41.410Z,97689.47
2023-02-25T14:22:36.711Z,97686.69
2023-02-25T14:25:19.011Z,97694.00
2023-02-25T14:28:00.134Z,97693.25
2023-02-25T14:30:40.567Z,97686.09
2023-02-25T14:33:27.864Z,97681.63
2023-02-25T14:36:20.539Z,97678.22
2023-02-25T14:39:06.683Z,97685.13
2023-02-25T14:41:45.804Z,97690.88
2023-02-25T14:44:25.222Z,97685.13
2023-02-25T14:46:58.267Z,97678.53
2023-02-25T14:49:31.403Z,97687.28
2023-02-25T14:52:32.994Z,97680.88
2023-02-25T14:55:18.928Z,97698.66
2023-02-25T14:58:13.306Z,97687.03
2023-02-25T15:01:18.391Z,97685.13
2023-02-25T15:04:12.598Z,97698.28
2023-02-25T15:06:54.853Z,97701.59
2023-02-25T15:10:00.536Z,97698.97
2023-02-25T15:12:47.926Z,97699.13
2023-02-25T15:15:36.275Z,97702.94
2023-02-25T15:18:36.856Z,97712.88
2023-02-25T15:21:37.170Z,97720.78
2023-02-25T15:24:10.753Z,97721.00
2023-02-25T15:26:46.539Z,97721.75
2023-02-25T15:29:42.708Z,97722.00
2023-02-25T15:32:22.387Z,97725.56
2023-02-25T15:34:58.078Z,97725.09
2023-02-25T15:37:37.199Z,97724.25
2023-02-25T15:40:38.705Z,97725.19
2023-02-25T15:43:45.024Z,97736.78
2023-02-25T15:46:42.081Z,97737.00
2023-02-25T15:49:28.835Z,97764.25
2023-02-25T15:52:02.058Z,97766.81
2023-02-25T15:54:49.578Z,97769.75
2023-02-25T15:57:38.805Z,97777.47
2023-02-25T16:00:40.093Z,97773.84
2023-02-25T16:03:27.208Z,97777.16
2023-02-25T16:06:00.218Z,97782.53
2023-02-25T16:08:36.422Z,97784.63
2023-02-25T16:11:07.600Z,97789.84
2023-02-25T16:13:38.032Z,97792.09
2023-02-25T16:16:07.737Z,97788.19
2023-02-25T16:18:40.162Z,97777.66
2023-02-25T16:21:13.731Z,97769.81
2023-02-25T16:23:44.426Z,97783.44
2023-02-25T16:26:22.650Z,97785.56
2023-02-25T16:28:58.332Z,97788.75
2023-02-25T16:31:39.077Z,97797.66
2023-02-25T16:34:15.304Z,97792.78
2023-02-25T16:36:51.890Z,97802.34
2023-02-25T16:39:23.685Z,97811.59
2023-02-25T16:41:52.973Z,97815.72
2023-02-25T16:44:24.164Z,97811.81
2023-02-25T16:46:54.713Z,97813.97
2023-02-25T16:49:29.696Z,97820.63
2023-02-25T16:51:58.198Z,97827.41
2023-02-25T16:54:32.089Z,97825.50
2023-02-25T16:57:01.843Z,97830.19
2023-02-25T16:59:33.354Z,97838.94
2023-02-25T17:02:05.581Z,97830.91
2023-02-25T17:04:37.297Z,97824.72
2023-02-25T17:07:12.726Z,97844.59
2023-02-25T17:09:47.130Z,97847.66
2023-02-25T17:12:20.509Z,97848.56
2023-02-25T17:14:50.650Z,97846.03
2023-02-25T17:17:24.877Z,97849.44
2023-02-25T17:19:53.119Z,97847.09
2023-02-25T17:22:23.377Z,97856.97
2023-02-25T17:24:54.883Z,97861.31
2023-02-25T17:27:24.657Z,97911.97
2023-02-25T17:29:52.785Z,97941.81
2023-02-25T17:32:23.728Z,97947.44
2023-02-25T17:34:54.402Z,97952.78
2023-02-25T17:37:23.758Z,97954.34
2023-02-25T17:39:55.686Z,97958.38
2023-02-25T17:42:32.056Z,97958.28
2023-02-25T17:45:00.855Z,97971.59
2023-02-25T17:47:31.170Z,97975.00
2023-02-25T17:50:03.275Z,97977.00
2023-02-25T17:52:33.475Z,97969.31
2023-02-25T17:55:06.235Z,97973.34
2023-02-25T17:57:34.469Z,97966.84
2023-02-25T18:00:14.106Z,97983.25
2023-02-25T18:02:44.075Z,97965.44
2023-02-25T18:05:21.516Z,97963.91
2023-02-25T18:08:20.654Z,97963.38
2023-02-25T18:10:55.011Z,97964.91
2023-02-25T18:13:35.150Z,97973.25
2023-02-25T18:16:31.053Z,97980.41
2023-02-25T18:19:01.627Z,97980.69
2023-02-25T18:21:33.960Z,97989.66
2023-02-25T18:24:02.248Z,97982.41
2023-02-25T18:26:31.581Z,97986.16
2023-02-25T18:29:00.645Z,97988.81
2023-02-25T18:31:28.547Z,97994.88
2023-02-25T18:33:56.297Z,97980.34
2023-02-25T18:36:26.816Z,97983.22
2023-02-25T18:38:56.798Z,97992.03
2023-02-25T18:41:24.601Z,97991.38
2023-02-25T18:43:54.661Z,97992.22
2023-02-25T18:46:22.810Z,97988.16
2023-02-25T18:48:50.765Z,97993.69
2023-02-25T18:51:18.651Z,97994.81
2023-02-25T18:53:46.704Z,97989.41
2023-02-25T18:56:17.878Z,98001.78
2023-02-25T18:58:45.706Z,97998.72
2023-02-25T19:01:23.439Z,98005.25
2023-02-25T19:03:52.416Z,98005.41
2023-02-25T19:06:20.782Z,98004.47
2023-02-25T19:08:48.520Z,98002.34
2023-02-25T19:11:20.041Z,98003.16
2023-02-25T19:13:47.881Z,98005.44
2023-02-25T19:16:17.123Z,98010.16
2023-02-25T19:18:47.133Z,98011.09
2023-02-25T19:21:16.784Z,98015.38
2023-02-25T19:23:45.178Z,98017.94
2023-02-25T19:26:14.589Z,98011.22
2023-02-25T19:28:42.407Z,98019.28
2023-02-25T19:31:12.376Z,98017.75
2023-02-25T19:33:41.643Z,98028.84
2023-02-25T19:36:09.936Z,98028.94
2023-02-25T19:38:39.203Z,98029.19
2023-02-25T19:41:07.585Z,98040.69
2023-02-25T19:43:35.427Z,98043.16
2023-02-25T19:46:05.092Z,98055.13
2023-02-25T19:48:32.947Z,98055.91
2023-02-25T19:51:06.504Z,98057.66
2023-02-25T19:53:35.324Z,98068.75
2023-02-25T19:56:03.962Z,98073.59
2023-02-25T19:58:32.571Z,98072.84
2023-02-25T20:01:05.323Z,98078.31
2023-02-25T20:03:36.038Z,98074.25
2023-02-25T20:06:10.931Z,98071.59
2023-02-25T20:08:40.144Z,98093.00
2023-02-25T20:11:10.148Z,98091.31
2023-02-25T20:13:38.503Z,98078.66
2023-02-25T20:16:09.027Z,98088.63
2023-02-25T20:18:36.978Z,98095.28
2023-02-25T20:21:05.367Z,98103.13
2023-02-25T20:23:34.440Z,98092.50
2023-02-25T20:26:06.986Z,98110.53
2023-02-25T20:28:34.866Z,98099.41
2023-02-25T20:31:06.997Z,98120.47
2023-02-25T20:33:35.907Z,98110.63
2023-02-25T20:36:14.832Z,98114.72
2023-02-25T20:38:57.535Z,98113.06
2023-02-25T20:41:25.971Z,98117.38
2023-02-25T20:43:53.901Z,98130.41
2023-02-25T20:46:26.112Z,98128.56
2023-02-25T20:48:54.400Z,98126.19
2023-02-25T20:51:22.743Z,98132.41
2023-02-25T20:53:52.466Z,98131.72
2023-02-25T20:56:23.237Z,98129.66
2023-02-25T20:58:51.637Z,98143.94
2023-02-25T21:01:19.691Z,98139.84
2023-02-25T21:03:50.255Z,98143.63
2023-02-25T21:06:19.006Z,98144.19
2023-02-25T21:08:47.013Z,98133.84
2023-02-25T21:11:16.235Z,98144.22
2023-02-25T21:13:45.855Z,98141.09
2023-02-25T21:16:14.263Z,98138.25
2023-02-25T21:18:42.199Z,98143.09
2023-02-25T21:21:11.039Z,98146.19
2023-02-25T21:23:41.846Z,98152.53
2023-02-25T21:26:11.217Z,98148.44
2023-02-25T21:28:41.938Z,98146.91
2023-02-25T21:31:12.456Z,98151.66
2023-02-25T21:33:41.073Z,98142.66
2023-02-25T21:36:10.031Z,98141.88
2023-02-25T21:38:38.623Z,98160.28
2023-02-25T21:41:07.625Z,98156.34
2023-02-25T21:43:35.516Z,98151.47
2023-02-25T21:46:10.953Z,98147.09
2023-02-25T21:48:39.896Z,98157.34
2023-02-25T21:51:07.793Z,98164.59
2023-02-25T21:53:35.550Z,98173.09
2023-02-25T21:56:09.776Z,98172.09
2023-02-25T21:58:37.617Z,98178.16
2023-02-25T22:01:15.132Z,98180.50
2023-02-25T22:03:43.577Z,98175.38
2023-02-25T22:06:11.652Z,98187.03
2023-02-25T22:08:40.262Z,98181.66
2023-02-25T22:11:13.256Z,98185.75
2023-02-25T22:13:41.606Z,98181.94
2023-02-25T22:16:10.309Z,98178.59
2023-02-25T22:18:39.635Z,98174.78
2023-02-25T22:21:09.833Z,98188.38
2023-02-25T22:23:37.603Z,98189.22
2023-02-25T22:26:07.252Z,98183.75
2023-02-25T22:28:35.271Z,98189.56
2023-02-25T22:31:03.714Z,98186.63
2023-02-25T22:33:32.779Z,98182.38
2023-02-25T22:36:04.100Z,98186.53
2023-02-25T22:38:34.133Z,98190.88
2023-02-25T22:41:02.337Z,98196.34
2023-02-25T22:43:30.922Z,98195.09
2023-02-25T22:46:06.983Z,98200.69
2023-02-25T22:48:35.641Z,98205.63
2023-02-25T22:51:05.344Z,98206.91
2023-02-25T22:53:33.241Z,98208.59
2023-02-25T22:56:01.923Z,98215.22
2023-02-25T22:58:32.096Z,98210.97
2023-02-25T23:01:00.157Z,98207.59
2023-02-25T23:03:28.046Z,98208.03
2023-02-25T23:05:56.120Z,98206.50
2023-02-25T23:08:25.370Z,98208.03
2023-02-25T23:10:53.521Z,98210.63
2023-02-25T23:13:21.630Z,98214.78
2023-02-25T23:15:49.545Z,98208.94
2023-02-25T23:18:19.113Z,98213.88
2023-02-25T23:20:48.723Z,98208.38
2023-02-25T23:23:17.518Z,98211.31
2023-02-25T23:25:52.283Z,98222.09
2023-02-25T23:28:20.205Z,98224.06
2023-02-25T23:30:48.051Z,98224.41
2023-02-25T23:33:16.121Z,98225.31
2023-02-25T23:35:43.977Z,98229.53
2023-02-25T23:38:11.772Z,98226.78
2023-02-25T23:40:39.563Z,98227.56
2023-02-25T23:43:08.688Z,98241.09
2023-02-25T23:45:36.526Z,98228.88
2023-02-25T23:48:04.736Z,98230.13
2023-02-25T23:50:32.609Z,98232.88
2023-02-25T23:53:00.486Z,98235.06
2023-02-25T23:55:30.384Z,98235.28
2023-02-25T23:57:58.197Z,98234.84
